Time;durP1;ratioP1;P1;durP2;ratioP2;P2;SDS_P1;SDS_P2;PMS_P1;PMS_P2;Temp;Humidity;BMP_temperature;BMP_pressure;BME280_temperature;BME280_humidity;BME280_pressure;Samples;Min_cycle;Max_cycle;Signal;HPM_P1;HPM_P2
2023/10/17 00:01:35;;;;;;;3.80;1.80;;;;;;;5.33;100.00;100052.02;109172;1253;71787;-57
2023/10/17 00:04:26;;;;;;;4.90;2.10;;;;;;;5.34;100.00;100055.60;109242;1253;60847;-57
2023/10/17 00:06:54;;;;;;;4.40;2.10;;;;;;;5.32;100.00;100058.89;109155;1253;59430;-57
2023/10/17 00:09:24;;;;;;;4.20;1.80;;;;;;;5.31;100.00;100065.33;109191;1254;73888;-57
2023/10/17 00:14:25;;;;;;;4.00;1.90;;;;;;;5.31;100.00;100063.68;109220;1253;72786;-57
2023/10/17 00:16:56;;;;;;;4.20;2.30;;;;;;;5.29;100.00;100066.73;109095;1259;62528;-57
2023/10/17 00:19:28;;;;;;;3.50;1.90;;;;;;;5.27;100.00;100068.23;109132;1253;60407;-57
2023/10/17 00:21:55;;;;;;;5.20;1.90;;;;;;;5.28;100.00;100070.86;109188;1253;74749;-57
2023/10/17 00:24:23;;;;;;;4.60;2.00;;;;;;;5.32;100.00;100071.27;108996;1253;275504;-57
2023/10/17 00:26:51;;;;;;;5.70;2.40;;;;;;;5.38;100.00;100071.52;109280;1253;72826;-56
2023/10/17 00:29:18;;;;;;;5.00;1.70;;;;;;;5.42;100.00;100076.50;109144;1253;61759;-56
2023/10/17 00:31:46;;;;;;;3.40;2.10;;;;;;;5.41;100.00;100077.77;109261;1253;60627;-56
2023/10/17 00:34:15;;;;;;;6.60;2.10;;;;;;;5.38;100.00;100081.41;109091;1253;74814;-57
2023/10/17 00:36:49;;;;;;;5.20;2.00;;;;;;;5.33;100.00;100088.20;109382;1253;66350;-56
2023/10/17 00:39:31;;;;;;;3.60;2.00;;;;;;;5.30;100.00;100090.59;109211;1253;71452;-56
2023/10/17 00:44:36;;;;;;;4.00;2.00;;;;;;;5.38;100.00;100102.70;109377;1253;60092;-57
2023/10/17 00:47:05;;;;;;;4.20;2.10;;;;;;;5.46;100.00;100105.08;109329;1253;74635;-57
2023/10/17 00:49:44;;;;;;;3.50;2.00;;;;;;;5.51;100.00;100106.30;109196;1253;67029;-57
2023/10/17 00:52:24;;;;;;;4.30;2.20;;;;;;;5.55;100.00;100106.73;109219;1253;72881;-56
2023/10/17 00:54:55;;;;;;;4.00;2.10;;;;;;;5.58;100.00;100109.67;108994;1252;61705;-57
2023/10/17 00:57:26;;;;;;;3.80;1.90;;;;;;;5.66;100.00;100116.91;109134;1253;60170;-59
2023/10/17 01:00:11;;;;;;;4.60;2.00;;;;;;;5.71;100.00;100120.59;109243;1252;73484;-56
2023/10/17 01:02:45;;;;;;;3.30;1.70;;;;;;;5.77;100.00;100122.27;109226;1253;65781;-56
2023/10/17 01:05:13;;;;;;;4.80;1.80;;;;;;;5.82;100.00;100127.07;109146;1253;72779;-57
2023/10/17 01:07:41;;;;;;;4.80;1.80;;;;;;;5.85;100.00;100128.14;109139;1253;59048;-56
2023/10/17 01:10:17;;;;;;;4.10;2.00;;;;;;;5.89;100.00;100136.25;109086;1253;60086;-57
2023/10/17 01:13:03;;;;;;;4.50;2.00;;;;;;;5.91;100.00;100139.98;109112;1254;74787;-59
2023/10/17 01:15:37;;;;;;;3.70;1.70;;;;;;;5.94;100.00;100140.63;109136;1253;65263;-57
2023/10/17 01:18:05;;;;;;;4.60;2.10;;;;;;;5.97;100.00;100144.30;109124;1256;71486;-56
2023/10/17 01:20:34;;;;;;;4.00;1.70;;;;;;;5.98;100.00;100149.96;109154;1253;61734;-56
2023/10/17 01:23:02;;;;;;;3.50;1.60;;;;;;;6.01;100.00;100156.92;109237;1254;59199;-57
2023/10/17 01:25:34;;;;;;;3.60;1.70;;;;;;;6.03;100.00;100154.84;109369;1253;74732;-57
2023/10/17 01:28:03;;;;;;;;;;;;;;;6.04;100.00;100157.85;109360;1253;66945;-56
2023/10/17 01:30:32;;;;;;;2.70;1.50;;;;;;;6.02;100.00;100157.68;109182;1253;72747;-57
2023/10/17 01:33:00;;;;;;;4.80;1.70;;;;;;;6.00;100.00;100156.18;109220;1253;61762;-56
2023/10/17 01:35:28;;;;;;;3.80;1.50;;;;;;;5.97;100.00;100155.77;109173;1253;59026;-56
2023/10/17 01:37:56;;;;;;;3.00;1.30;;;;;;;5.91;100.00;100156.08;109270;1254;74752;-56
2023/10/17 01:40:27;;;;;;;3.00;1.40;;;;;;;5.81;100.00;100161.33;109181;1255;66650;-57
2023/10/17 01:43:00;;;;;;;5.20;2.10;;;;;;;5.71;100.00;100166.84;109106;1252;72707;-57
2023/10/17 01:45:29;;;;;;;3.50;1.60;;;;;;;5.60;100.00;100168.98;109068;1254;60482;-57
2023/10/17 01:47:58;;;;;;;3.10;1.80;;;;;;;5.51;100.00;100175.05;109250;1254;59725;-56
2023/10/17 01:50:26;;;;;;;3.20;1.30;;;;;;;5.45;100.00;100181.19;109198;1253;73723;-57
2023/10/17 01:52:54;;;;;;;4.00;2.00;;;;;;;5.40;100.00;100186.54;109154;1253;65769;-57
2023/10/17 01:55:25;;;;;;;5.00;2.00;;;;;;;5.36;100.00;100190.16;109216;1253;72409;-57
2023/10/17 01:58:07;;;;;;;4.00;1.90;;;;;;;5.35;100.00;100192.25;109116;1253;60459;-56
2023/10/17 02:00:38;;;;;;;4.60;1.60;;;;;;;5.37;100.00;100195.85;109122;1254;58950;-57
2023/10/17 02:03:05;;;;;;;2.60;1.50;;;;;;;5.41;100.00;100200.88;109068;1253;73765;-56
2023/10/17 02:05:36;;;;;;;3.60;1.80;;;;;;;5.47;100.00;100204.55;109220;1259;65666;-57
2023/10/17 02:08:05;;;;;;;3.10;1.50;;;;;;;5.53;100.00;100205.70;109169;1254;73255;-56
2023/10/17 02:10:33;;;;;;;2.60;1.50;;;;;;;5.58;100.00;100211.17;109153;1254;60929;-57
2023/10/17 02:13:04;;;;;;;4.00;1.40;;;;;;;5.60;100.00;100213.08;109194;1253;60230;-57
2023/10/17 02:15:32;;;;;;;2.70;1.40;;;;;;;5.56;100.00;100213.17;109179;1253;74175;-57
2023/10/17 02:18:06;;;;;;;2.90;1.40;;;;;;;5.48;100.00;100214.67;109059;1253;65703;-57
2023/10/17 02:20:34;;;;;;;4.80;2.00;;;;;;;5.38;100.00;100211.69;109125;1254;71147;-56
2023/10/17 02:23:19;;;;;;;3.90;1.60;;;;;;;5.28;100.00;100214.68;109178;1252;60585;-56
2023/10/17 02:25:49;;;;;;;3.80;1.70;;;;;;;5.16;100.00;100217.05;109308;1253;60099;-56
2023/10/17 02:28:17;;;;;;;3.30;1.40;;;;;;;5.08;100.00;100218.20;109260;1254;74841;-57
2023/10/17 02:30:44;;;;;;;3.00;1.50;;;;;;;4.99;100.00;100224.21;109193;1254;67003;-57
2023/10/17 02:33:17;;;;;;;3.00;1.50;;;;;;;4.91;100.00;100222.92;109170;1253;72737;-57
2023/10/17 02:36:09;;;;;;;3.40;1.80;;;;;;;4.86;100.00;100223.60;109158;1253;60465;-56
2023/10/17 02:38:37;;;;;;;3.70;2.40;;;;;;;4.80;100.00;100226.75;109228;1253;59134;-57
2023/10/17 02:41:08;;;;;;;5.00;2.70;;;;;;;4.72;100.00;100227.15;109213;1253;74755;-57
2023/10/17 02:43:40;;;;;;;;;;;;;;;4.66;100.00;100228.25;109273;1253;67671;-56
2023/10/17 02:46:07;;;;;;;3.80;2.00;;;;;;;4.62;100.00;100233.43;109198;1255;72105;-56
2023/10/17 02:48:38;;;;;;;3.20;2.10;;;;;;;4.55;100.00;100239.43;109246;1254;60966;-57
2023/10/17 02:53:53;;;;;;;3.80;2.10;;;;;;;4.43;100.00;100244.04;109386;1253;74837;-56
2023/10/17 02:56:21;;;;;;;4.70;2.40;;;;;;;4.37;100.00;100247.33;109139;1254;67096;-56
2023/10/17 02:59:04;;;;;;;4.80;2.10;;;;;;;4.32;100.00;100246.74;109182;1254;71847;-56
2023/10/17 03:01:36;;;;;;;6.40;2.20;;;;;;;4.26;100.00;100250.75;109192;1253;61075;-57
2023/10/17 03:04:09;;;;;;;3.50;2.10;;;;;;;4.22;100.00;100250.32;108932;1253;58942;-56
2023/10/17 03:06:37;;;;;;;6.70;1.90;;;;;;;4.18;100.00;100254.56;109091;1253;73547;-56
2023/10/17 03:14:32;;;;;;;3.50;1.90;;;;;;;4.21;100.00;100261.86;109045;1253;59670;-58
2023/10/17 03:17:00;;;;;;;3.70;1.90;;;;;;;4.29;100.00;100265.66;109173;1253;58955;-57
2023/10/17 03:19:27;;;;;;;4.30;1.90;;;;;;;4.34;100.00;100266.89;109023;1254;73803;-57
2023/10/17 03:22:16;;;;;;;3.20;1.70;;;;;;;4.37;100.00;100270.73;109070;1254;65816;-58
2023/10/17 03:24:45;;;;;;;3.50;1.90;;;;;;;4.39;100.00;100271.55;108998;1253;72649;-57
2023/10/17 03:30:11;;;;;;;5.60;2.20;;;;;;;4.54;100.00;100281.66;109177;1254;59424;-57
2023/10/17 03:35:26;;;;;;;3.50;1.70;;;;;;;4.85;100.00;100290.81;109038;1254;65677;-59
2023/10/17 03:37:54;;;;;;;4.20;1.90;;;;;;;4.98;100.00;100298.35;109024;1254;72676;-57
2023/10/17 03:40:35;;;;;;;3.90;2.10;;;;;;;5.09;100.00;100305.21;109166;1254;60454;-57
2023/10/17 03:43:11;;;;;;;6.60;2.30;;;;;;;5.21;100.00;100310.37;109227;1254;58964;-57
2023/10/17 03:45:52;;;;;;;3.90;1.60;;;;;;;5.29;100.00;100308.83;109208;1254;74720;-57
2023/10/17 03:48:21;;;;;;;8.20;2.70;;;;;;;5.35;100.00;100316.58;109157;1254;66969;-57
2023/10/17 03:50:58;;;;;;;3.90;2.10;;;;;;;5.39;100.00;100319.64;109217;1254;71396;-57
2023/10/17 03:53:29;;;;;;;3.70;2.30;;;;;;;5.42;100.00;100323.99;109323;1253;60733;-57
2023/10/17 03:56:04;;;;;;;4.50;2.40;;;;;;;5.45;100.00;100324.21;109266;1253;58941;-57
2023/10/17 04:01:00;;;;;;;4.50;2.40;;;;;;;5.45;100.00;100327.84;109337;1253;67268;-57
2023/10/17 04:03:31;;;;;;;5.00;2.00;;;;;;;5.45;100.00;100331.23;109325;1254;71902;-56
2023/10/17 04:06:16;;;;;;;3.90;2.20;;;;;;;5.44;100.00;100335.11;109198;1254;61685;-57
2023/10/17 04:08:56;;;;;;;4.20;2.50;;;;;;;5.46;100.00;100341.04;109251;1253;59441;-56
2023/10/17 04:14:00;;;;;;;6.30;2.70;;;;;;;5.48;100.00;100354.23;109343;1253;66217;-56
2023/10/17 04:16:34;;;;;;;4.70;2.80;;;;;;;5.48;100.00;100357.19;109228;1253;71473;-58
2023/10/17 04:19:02;;;;;;;4.40;3.00;;;;;;;5.49;100.00;100364.82;109298;1254;60973;-58
2023/10/17 04:21:31;;;;;;;4.50;2.60;;;;;;;5.51;100.00;100367.42;109345;1252;58948;-57
2023/10/17 04:23:59;;;;;;;6.00;2.80;;;;;;;5.53;100.00;100375.98;109276;1252;74833;-57
2023/10/17 04:26:27;;;;;;;5.60;3.40;;;;;;;5.54;100.00;100381.42;109200;1253;65669;-59
2023/10/17 04:28:55;;;;;;;5.30;3.30;;;;;;;5.56;100.00;100381.75;109252;1254;71442;-56
2023/10/17 04:31:26;;;;;;;6.00;3.50;;;;;;;5.58;100.00;100385.44;109212;1253;60140;-57
2023/10/17 04:34:06;;;;;;;6.40;3.50;;;;;;;5.64;100.00;100385.16;109139;1253;59308;-57
2023/10/17 04:36:37;;;;;;;4.40;2.70;;;;;;;5.67;100.00;100392.75;109114;1254;74173;-57
2023/10/17 04:44:22;;;;;;;3.90;2.40;;;;;;;5.81;100.00;100397.73;109173;1254;62697;-58
2023/10/17 04:49:36;;;;;;;6.60;3.90;;;;;;;5.90;100.00;100404.88;109192;1254;75089;-60
2023/10/17 04:52:08;;;;;;;7.40;3.50;;;;;;;5.95;100.00;100411.27;109157;1253;67645;-57
2023/10/17 04:57:04;;;;;;;5.50;3.00;;;;;;;6.02;100.00;100416.14;109197;1253;60469;-57
2023/10/17 05:07:34;;;;;;;4.00;2.80;;;;;;;6.21;100.00;100436.38;109117;1253;72568;-57
2023/10/17 06:17:22;;;;;;;3.70;2.10;;;;;;;8.78;100.00;100469.04;109282;1252;71358;-55
2023/10/17 06:19:50;;;;;;;5.10;2.40;;;;;;;8.77;100.00;100467.21;109245;1253;61739;-56
2023/10/17 06:30:34;;;;;;;3.10;1.70;;;;;;;8.98;100.00;100463.91;109160;1253;71460;-58
2023/10/17 06:33:17;;;;;;;3.40;2.10;;;;;;;9.13;100.00;100455.63;109206;1253;60148;-56
2023/10/17 06:35:46;;;;;;;3.70;2.40;;;;;;;9.12;100.00;100450.99;109218;1253;59077;-58
2023/10/17 06:38:16;;;;;;;4.40;2.70;;;;;;;9.06;100.00;100447.44;109259;1253;74426;-55
2023/10/17 06:40:52;;;;;;;4.20;2.40;;;;;;;9.04;100.00;100447.54;109213;1253;65693;-56
2023/10/17 06:43:28;;;;;;;4.60;2.40;;;;;;;9.05;100.00;100446.34;109172;1253;71412;-55
2023/10/17 06:46:11;;;;;;;5.20;2.50;;;;;;;9.10;100.00;100451.13;109218;1253;61879;-56
2023/10/17 06:48:56;;;;;;;3.40;2.20;;;;;;;9.09;100.00;100452.36;109230;1253;61911;-56
2023/10/17 06:51:33;;;;;;;4.30;2.60;;;;;;;9.08;100.00;100450.42;109189;1253;72427;-56
2023/10/17 06:54:06;;;;;;;4.10;2.40;;;;;;;9.17;100.00;100450.94;109327;1253;65547;-55
2023/10/17 06:56:41;;;;;;;3.70;2.40;;;;;;;9.30;100.00;100450.02;109248;1253;71399;-55
2023/10/17 06:59:29;;;;;;;3.80;2.30;;;;;;;9.30;100.00;100450.30;109161;1254;60130;-55
2023/10/17 07:02:10;;;;;;;4.10;2.20;;;;;;;9.24;100.00;100453.27;109309;1252;59097;-55
2023/10/17 07:04:40;;;;;;;4.60;2.70;;;;;;;9.45;100.00;100452.17;109283;1253;74713;-57
2023/10/17 07:07:09;;;;;;;4.10;2.70;;;;;;;10.06;100.00;100460.34;109095;1253;65640;-56
2023/10/17 07:09:42;;;;;;;4.60;2.20;;;;;;;10.82;100.00;100456.65;109308;1253;72742;-55
2023/10/17 07:12:13;;;;;;;5.20;3.50;;;;;;;11.61;100.00;100447.00;109310;1253;59030;-56
2023/10/17 07:14:47;;;;;;;4.80;2.50;;;;;;;12.21;100.00;100440.73;109236;1253;60086;-56
2023/10/17 07:17:28;;;;;;;3.30;2.00;;;;;;;12.63;100.00;100432.90;109336;1253;74639;-55
2023/10/17 07:20:01;;;;;;;4.30;2.20;;;;;;;13.08;100.00;100425.48;109274;1253;65859;-56
2023/10/17 07:22:35;;;;;;;3.90;2.00;;;;;;;13.38;100.00;100421.92;109221;1253;72907;-56
2023/10/17 07:25:14;;;;;;;3.00;1.70;;;;;;;13.50;100.00;100420.83;109253;1253;60648;-56
2023/10/17 07:27:44;;;;;;;3.60;1.80;;;;;;;13.35;100.00;100410.67;109298;1253;59328;-56
2023/10/17 07:30:35;;;;;;;3.60;2.10;;;;;;;13.22;100.00;100412.66;109270;1253;73465;-56
2023/10/17 07:33:05;;;;;;;3.30;1.40;;;;;;;13.36;100.00;100417.38;109351;1253;66831;-56
2023/10/17 07:35:36;;;;;;;3.40;2.10;;;;;;;13.43;100.00;100418.95;109297;1253;71721;-55
2023/10/17 07:38:04;;;;;;;4.40;1.90;;;;;;;13.26;100.00;100426.34;109294;1252;60095;-55
2023/10/17 07:40:33;;;;;;;4.00;2.50;;;;;;;12.99;100.00;100425.56;109335;1253;58949;-56
2023/10/17 07:43:01;;;;;;;5.40;2.00;;;;;;;12.66;100.00;100435.90;109279;1253;74983;-56
2023/10/17 07:45:41;;;;;;;3.30;1.80;;;;;;;12.39;100.00;100437.64;109270;1253;67076;-56
2023/10/17 07:51:04;;;;;;;3.70;2.10;;;;;;;11.89;100.00;100445.80;109040;1253;59472;-55
2023/10/17 07:53:32;;;;;;;4.00;2.00;;;;;;;12.05;100.00;100443.77;109293;1253;58996;-56
2023/10/17 07:56:12;;;;;;;2.40;1.50;;;;;;;12.51;100.00;100446.10;109366;1253;74770;-56
2023/10/17 07:58:43;;;;;;;3.30;1.80;;;;;;;12.87;100.00;100447.61;109295;1253;66905;-58
2023/10/17 08:01:19;;;;;;;3.50;2.00;;;;;;;13.01;100.00;100448.48;109340;1253;71385;-56
2023/10/17 08:03:54;;;;;;;4.50;1.60;;;;;;;13.25;100.00;100451.35;109305;1253;58977;-55
2023/10/17 08:06:29;;;;;;;4.20;1.90;;;;;;;13.44;100.00;100453.65;109258;1253;60033;-58
2023/10/17 08:08:59;;;;;;;3.50;1.70;;;;;;;13.43;100.00;100454.52;109200;1253;74798;-56
2023/10/17 08:11:27;;;;;;;3.60;1.80;;;;;;;13.36;100.00;100454.14;109225;1254;66164;-56
2023/10/17 08:13:56;;;;;;;3.00;1.50;;;;;;;13.25;100.00;100460.77;109297;1253;72698;-56
2023/10/17 08:16:29;;;;;;;4.10;1.80;;;;;;;12.99;100.00;100463.05;109220;1253;58888;-57
2023/10/17 08:19:15;;;;;;;3.70;1.80;;;;;;;12.65;100.00;100466.38;109336;1253;60173;-56
2023/10/17 08:22:09;;;;;;;4.00;2.10;;;;;;;12.36;100.00;100471.08;109338;1253;74759;-56
2023/10/17 08:32:47;;;;;;;3.80;1.90;;;;;;;13.31;100.00;100464.71;109347;1252;62273;-56
2023/10/17 08:35:20;;;;;;;3.30;1.90;;;;;;;13.34;100.00;100474.48;109334;1253;75278;-56
2023/10/17 08:37:47;;;;;;;4.00;1.90;;;;;;;13.21;100.00;100474.60;109312;1252;68917;-56
2023/10/17 08:42:56;;;;;;;4.00;1.80;;;;;;;13.08;100.00;100476.70;109163;1253;61971;-55
2023/10/17 08:45:26;;;;;;;3.30;1.80;;;;;;;13.36;100.00;100481.52;109097;1252;61454;-56
2023/10/17 08:48:00;;;;;;;3.30;2.10;;;;;;;13.48;100.00;100486.16;109294;1253;73729;-56
2023/10/17 08:50:31;;;;;;;4.50;2.50;;;;;;;13.14;100.00;100487.31;109190;1253;66832;-57
2023/10/17 08:52:59;;;;;;;4.00;2.10;;;;;;;12.74;100.00;100492.89;109344;1253;73186;-55
2023/10/17 08:55:27;;;;;;;3.70;1.90;;;;;;;12.62;100.00;100489.66;109118;1253;60148;-55
2023/10/17 08:57:54;;;;;;;4.10;2.20;;;;;;;12.66;100.00;100492.80;109322;1253;59896;-55
2023/10/17 09:00:48;;;;;;;3.70;2.30;;;;;;;12.66;100.00;100489.13;109315;1253;75711;-55
2023/10/17 09:03:23;;;;;;;3.60;2.30;;;;;;;12.72;100.00;100493.80;109350;1253;65805;-55
2023/10/17 09:05:58;;;;;;;4.80;2.10;;;;;;;13.02;100.00;100490.44;109298;1253;74163;-55
2023/10/17 09:08:52;;;;;;;3.40;2.20;;;;;;;13.36;100.00;100486.64;109306;1253;59906;-55
2023/10/17 09:11:29;;;;;;;3.50;2.00;;;;;;;13.64;100.00;100489.16;109308;1253;60097;-56
2023/10/17 09:19:52;;;;;;;4.10;2.30;;;;;;;13.22;100.00;100484.39;109289;1253;72679;-54
2023/10/17 09:22:20;;;;;;;3.40;2.10;;;;;;;13.62;100.00;100482.15;109251;1253;60309;-56
2023/10/17 09:24:51;;;;;;;3.80;2.40;;;;;;;13.94;100.00;100482.10;109253;1253;59001;-55
2023/10/17 09:27:18;;;;;;;3.10;1.90;;;;;;;14.14;100.00;100477.96;109302;1253;73294;-55
2023/10/17 09:29:47;;;;;;;2.90;1.80;;;;;;;14.06;100.00;100480.33;109319;1252;65689;-55
2023/10/17 09:32:32;;;;;;;4.00;2.30;;;;;;;13.90;100.00;100483.34;109316;1253;72677;-56
2023/10/17 09:35:04;;;;;;;2.90;2.20;;;;;;;13.80;100.00;100487.30;109255;1253;62084;-55
2023/10/17 09:37:32;;;;;;;3.90;2.30;;;;;;;13.78;100.00;100484.20;109118;1253;61032;-56
2023/10/17 09:40:03;;;;;;;3.70;1.30;;;;;;;14.07;100.00;100488.44;109308;1253;74746;-55
2023/10/17 09:42:30;;;;;;;3.50;1.80;;;;;;;14.41;100.00;100486.84;109325;1253;66983;-56
2023/10/17 09:44:58;;;;;;;3.20;1.50;;;;;;;14.68;100.00;100486.88;109334;1253;74807;-55
2023/10/17 09:47:27;;;;;;;2.70;1.70;;;;;;;14.84;100.00;100490.85;109296;1253;62546;-55
2023/10/17 09:49:55;;;;;;;2.70;1.60;;;;;;;14.63;98.03;100492.30;109090;1253;60341;-56
2023/10/17 09:52:23;;;;;;;3.50;1.50;;;;;;;14.25;100.00;100496.93;109251;1253;76084;-56
2023/10/17 09:54:51;;;;;;;4.30;1.80;;;;;;;14.17;100.00;100499.21;109061;1253;66793;-55
2023/10/17 09:57:20;;;;;;;3.00;1.60;;;;;;;14.24;100.00;100503.34;109209;1253;74941;-55
2023/10/17 09:59:58;;;;;;;3.50;1.60;;;;;;;14.23;100.00;100506.96;109256;1253;60315;-56
2023/10/17 10:02:26;;;;;;;3.20;1.70;;;;;;;14.32;100.00;100502.30;109071;1253;62412;-56
2023/10/17 10:04:54;;;;;;;2.70;1.70;;;;;;;14.46;100.00;100500.64;109261;1253;74630;-55
2023/10/17 10:07:22;;;;;;;3.70;1.80;;;;;;;14.56;100.00;100500.55;109098;1253;65814;-55
2023/10/17 10:09:50;;;;;;;2.80;1.60;;;;;;;14.73;100.00;100494.95;109164;1253;72677;-55
2023/10/17 10:12:18;;;;;;;4.00;1.60;;;;;;;14.88;99.21;100499.17;109110;1253;62797;-56
2023/10/17 10:14:49;;;;;;;2.70;1.30;;;;;;;14.85;96.38;100497.60;109236;1253;59042;-56
2023/10/17 10:17:17;;;;;;;3.00;1.40;;;;;;;14.86;97.43;100502.58;109153;1253;74786;-56
2023/10/17 10:19:46;;;;;;;2.80;1.50;;;;;;;14.98;93.71;100509.58;109120;1253;65503;-56
2023/10/17 10:22:14;;;;;;;2.60;1.20;;;;;;;15.02;88.01;100511.02;109230;1253;72788;-56
2023/10/17 10:24:46;;;;;;;6.30;1.70;;;;;;;14.97;85.36;100514.18;109199;1254;59738;-55
2023/10/17 10:27:18;;;;;;;2.90;1.50;;;;;;;14.88;85.20;100513.84;109255;1253;62415;-55
2023/10/17 10:29:54;;;;;;;2.50;1.30;;;;;;;14.74;84.97;100514.13;109243;1258;73401;-55
2023/10/17 10:32:25;;;;;;;3.10;1.40;;;;;;;14.46;81.27;100511.84;109394;1253;67577;-55
2023/10/17 10:34:52;;;;;;;2.80;1.30;;;;;;;14.07;85.30;100515.86;109325;1253;72740;-55
2023/10/17 10:37:21;;;;;;;3.60;1.50;;;;;;;13.85;89.55;100515.70;109227;1253;60905;-54
2023/10/17 10:40:41;;;;;;;3.20;1.50;;;;;;;13.91;88.69;100510.88;109258;1253;60123;-56
2023/10/17 10:43:04;;;;;;;3.50;1.60;;;;;;;14.05;88.95;100503.08;109251;1253;73448;-55
2023/10/17 10:45:39;;;;;;;3.20;1.90;;;;;;;14.24;88.79;100509.83;109143;1253;68238;-55
2023/10/17 10:48:15;;;;;;;2.30;1.00;;;;;;;14.41;84.25;100511.45;109258;1253;74819;-55
2023/10/17 10:50:50;;;;;;;2.60;1.40;;;;;;;14.50;85.62;100513.21;109305;1253;61323;-55
2023/10/17 10:53:25;;;;;;;2.70;1.50;;;;;;;14.64;89.17;100511.60;109430;1253;59582;-55
2023/10/17 10:55:56;;;;;;;2.90;1.60;;;;;;;14.74;88.14;100516.96;109267;1253;76739;-56
2023/10/17 10:58:25;;;;;;;3.00;1.70;;;;;;;14.66;83.16;100515.76;109360;1253;68426;-58
2023/10/17 11:00:58;;;;;;;3.00;1.30;;;;;;;14.47;87.06;100511.02;109312;1253;75007;-56
2023/10/17 11:03:26;;;;;;;4.00;1.20;;;;;;;14.44;89.07;100512.50;109249;1253;62180;-56
2023/10/17 11:06:03;;;;;;;3.60;1.30;;;;;;;14.33;86.32;100508.88;109231;1253;62395;-55
2023/10/17 11:08:35;;;;;;;2.70;1.30;;;;;;;14.18;87.98;100508.94;109294;1253;74722;-57
2023/10/17 11:11:04;;;;;;;3.90;1.40;;;;;;;14.20;89.78;100511.12;109369;1252;69123;-55
2023/10/17 11:13:36;;;;;;;2.90;1.40;;;;;;;14.32;88.69;100511.21;109345;1253;74993;-56
2023/10/17 11:16:06;;;;;;;3.70;1.20;;;;;;;14.42;85.28;100516.45;109340;1252;59121;-56
2023/10/17 11:18:43;;;;;;;3.20;1.50;;;;;;;14.39;82.10;100516.05;109186;1253;58992;-56
2023/10/17 11:21:11;;;;;;;4.40;1.90;;;;;;;14.17;79.96;100515.14;109165;1253;76865;-56
2023/10/17 11:23:40;;;;;;;2.90;1.40;;;;;;;13.84;81.93;100522.95;109276;1253;65655;-56
2023/10/17 11:26:12;;;;;;;3.60;1.30;;;;;;;13.47;87.03;100517.47;109351;1253;72734;-56
2023/10/17 11:28:56;;;;;;;3.60;1.30;;;;;;;13.15;95.65;100521.95;109178;1253;59012;-56
2023/10/17 11:31:24;;;;;;;4.30;1.70;;;;;;;12.98;99.73;100517.39;109379;1253;61279;-55
2023/10/17 11:33:52;;;;;;;3.40;1.40;;;;;;;12.89;100.00;100522.16;109283;1253;76686;-56
2023/10/17 11:36:22;;;;;;;3.30;1.70;;;;;;;12.83;100.00;100519.30;109321;1253;69484;-56
2023/10/17 11:38:56;;;;;;;3.20;1.30;;;;;;;12.75;100.00;100520.83;109350;1253;72738;-57
2023/10/17 11:41:38;;;;;;;2.90;1.30;;;;;;;12.53;99.58;100519.73;109328;1253;62415;-56
2023/10/17 11:44:06;;;;;;;3.10;1.30;;;;;;;12.27;100.00;100521.88;109213;1253;62402;-56
2023/10/17 11:46:35;;;;;;;3.80;1.20;;;;;;;12.12;100.00;100522.73;109258;1253;76042;-57
2023/10/17 11:49:52;;;;;;;4.00;1.20;;;;;;;12.11;100.00;100521.66;109365;1253;67922;-57
2023/10/17 11:52:12;;;;;;;2.40;1.10;;;;;;;12.33;100.00;100522.70;109198;1253;71501;-55
2023/10/17 11:55:00;;;;;;;3.40;1.30;;;;;;;12.65;100.00;100518.34;109376;1253;62801;-55
2023/10/17 11:57:29;;;;;;;2.30;1.00;;;;;;;13.03;93.21;100512.96;109370;1253;59588;-55
2023/10/17 12:00:23;;;;;;;2.60;1.10;;;;;;;13.22;85.02;100509.11;109134;1253;76726;-56
2023/10/17 12:02:50;;;;;;;2.10;1.00;;;;;;;13.31;82.28;100509.06;109205;1253;65864;-56
2023/10/17 12:05:18;;;;;;;2.00;0.80;;;;;;;13.31;80.20;100512.56;109282;1253;71443;-56
2023/10/17 12:07:54;;;;;;;2.10;0.90;;;;;;;13.28;79.30;100516.38;109211;1253;62740;-56
2023/10/17 12:10:26;;;;;;;2.30;1.20;;;;;;;13.33;74.67;100519.30;109277;1253;60316;-55
2023/10/17 12:13:01;;;;;;;2.50;1.10;;;;;;;13.30;69.84;100519.97;109222;1253;76251;-55
2023/10/17 12:15:28;;;;;;;2.40;1.20;;;;;;;13.20;71.04;100525.98;109225;1253;67473;-56
2023/10/17 12:17:56;;;;;;;3.20;1.10;;;;;;;13.12;80.43;100532.34;109272;1253;73736;-56
2023/10/17 12:20:27;;;;;;;2.60;1.30;;;;;;;13.15;85.99;100534.84;109252;1253;60125;-58
2023/10/17 12:22:56;;;;;;;3.40;1.30;;;;;;;13.21;87.91;100532.52;109188;1253;61239;-55
2023/10/17 12:25:23;;;;;;;2.90;1.00;;;;;;;13.28;87.50;100531.68;108929;1251;378220;-55
2023/10/17 12:27:56;;;;;;;2.80;1.40;;;;;;;13.34;87.50;100529.27;109259;1253;66906;-55
2023/10/17 12:30:28;;;;;;;2.50;1.00;;;;;;;13.45;87.80;100531.59;109239;1253;73360;-57
2023/10/17 12:32:56;;;;;;;3.20;1.30;;;;;;;13.52;88.01;100531.14;109229;1253;59482;-56
2023/10/17 12:35:27;;;;;;;3.90;1.60;;;;;;;13.47;88.31;100530.44;109112;1253;58974;-55
2023/10/17 12:38:14;;;;;;;2.20;1.00;;;;;;;13.29;86.01;100535.79;109248;1253;77476;-56
2023/10/17 12:40:42;;;;;;;2.30;1.10;;;;;;;13.09;90.22;100539.08;109247;1253;67388;-57
2023/10/17 12:43:11;;;;;;;2.90;1.00;;;;;;;12.99;90.49;100539.69;109217;1253;72726;-55
2023/10/17 12:45:39;;;;;;;2.20;0.90;;;;;;;12.85;89.15;100539.60;109405;1251;60100;-55
2023/10/17 12:48:11;;;;;;;4.70;1.40;;;;;;;12.70;89.21;100535.80;109466;1251;60551;-54
2023/10/17 12:50:43;;;;;;;2.20;1.00;;;;;;;12.50;92.08;100535.72;109338;1253;76475;-55
2023/10/17 12:53:11;;;;;;;;;;;;;;;12.24;95.06;100538.02;109252;1253;69115;-55
2023/10/17 12:55:39;;;;;;;2.30;1.20;;;;;;;11.90;94.69;100538.16;109240;1253;74801;-55
2023/10/17 12:58:12;;;;;;;3.00;0.90;;;;;;;11.56;98.84;100543.05;109208;1253;58971;-55
2023/10/17 13:00:41;;;;;;;2.90;0.80;;;;;;;11.35;100.00;100543.98;109234;1253;60412;-54
2023/10/17 13:03:09;;;;;;;2.80;0.90;;;;;;;11.26;100.00;100541.29;109244;1251;74642;-54
2023/10/17 13:05:37;;;;;;;2.80;0.80;;;;;;;11.25;100.00;100540.67;109472;1251;68040;-54
2023/10/17 13:08:05;;;;;;;3.40;1.00;;;;;;;11.27;100.00;100542.51;109431;1251;72961;-56
2023/10/17 13:10:33;;;;;;;2.60;0.80;;;;;;;11.28;100.00;100545.68;109422;1251;60042;-55
2023/10/17 13:13:01;;;;;;;1.70;0.60;;;;;;;11.26;100.00;100551.65;109503;1251;61663;-55
2023/10/17 13:15:29;;;;;;;2.10;0.60;;;;;;;11.25;100.00;100550.95;109472;1251;74711;-54
2023/10/17 13:18:00;;;;;;;2.60;0.70;;;;;;;11.22;100.00;100556.81;109502;1251;69084;-55
2023/10/17 13:20:28;;;;;;;2.00;1.00;;;;;;;11.16;100.00;100556.63;109399;1253;73725;-57
2023/10/17 13:23:16;;;;;;;3.10;0.70;;;;;;;11.07;100.00;100554.80;109410;1251;58915;-54
2023/10/17 13:25:44;;;;;;;2.00;0.70;;;;;;;10.93;100.00;100554.31;109443;1251;61486;-55
2023/10/17 13:28:12;;;;;;;1.50;0.80;;;;;;;10.79;100.00;100556.86;109319;1253;76772;-55
2023/10/17 13:30:40;;;;;;;2.40;1.20;;;;;;;10.66;100.00;100552.04;109140;1253;68831;-55
2023/10/17 13:33:08;;;;;;;3.90;1.20;;;;;;;10.52;100.00;100554.58;109307;1253;73769;-55
2023/10/17 13:35:40;;;;;;;3.10;0.90;;;;;;;10.36;100.00;100559.25;109298;1253;59328;-55
2023/10/17 13:38:09;;;;;;;3.20;0.70;;;;;;;10.22;100.00;100560.89;109128;1253;61606;-56
2023/10/17 13:40:38;;;;;;;8.80;5.50;;;;;;;10.08;100.00;100561.98;109137;1252;76727;-55
2023/10/17 13:43:06;;;;;;;7.40;4.90;;;;;;;9.94;100.00;100563.48;109221;1253;69079;-55
2023/10/17 13:45:40;;;;;;;2.10;0.90;;;;;;;9.79;100.00;100562.55;109385;1251;73784;-55
2023/10/17 13:48:09;;;;;;;2.40;1.00;;;;;;;9.63;100.00;100564.52;109415;1251;59425;-56
2023/10/17 13:50:37;;;;;;;2.40;0.90;;;;;;;9.48;100.00;100563.85;109435;1251;61770;-55
2023/10/17 13:53:09;;;;;;;1.60;0.80;;;;;;;9.36;100.00;100564.34;109470;1251;77413;-55
2023/10/17 13:55:38;;;;;;;2.00;1.00;;;;;;;9.23;100.00;100566.72;109403;1251;66939;-55